Time;durP1;ratioP1;P1;durP2;ratioP2;P2;SDS_P1;SDS_P2;PMS_P1;PMS_P2;Temp;Humidity;BMP_temperature;BMP_pressure;BME280_temperature;BME280_humidity;BME280_pressure;Samples;Min_cycle;Max_cycle;Signal;HPM_P1;HPM_P2
2022/06/24 00:00:06;;;;;;;5.03;2.78;;;23.30;71.40;;;;;;5048004;28;20036;-80
2022/06/24 00:02:32;;;;;;;4.47;2.75;;;23.10;72.00;;;;;;5032236;28;20704;-82
2022/06/24 00:05:05;;;;;;;4.03;2.40;;;23.10;72.60;;;;;;5061983;28;20044;-82
2022/06/24 00:07:44;;;;;;;4.10;2.20;;;23.00;73.70;;;;;;5043770;28;20124;-82
2022/06/24 00:10:16;;;;;;;3.85;2.42;;;22.90;74.70;;;;;;5042261;28;20033;-82
2022/06/24 00:12:44;;;;;;;4.18;2.78;;;23.00;74.80;;;;;;5028007;28;20067;-82
2022/06/24 00:15:10;;;;;;;4.65;2.47;;;23.00;75.10;;;;;;5050768;28;20034;-82
2022/06/24 00:17:36;;;;;;;4.03;2.60;;;23.00;75.40;;;;;;5033305;28;20040;-82
2022/06/24 00:20:05;;;;;;;3.72;2.55;;;23.00;75.90;;;;;;5048822;28;20604;-82
2022/06/24 00:22:39;;;;;;;3.95;2.75;;;23.00;76.40;;;;;;5039544;28;20071;-82
2022/06/24 00:25:14;;;;;;;3.67;2.50;;;23.10;76.60;;;;;;5044680;28;20045;-82
2022/06/24 00:27:41;;;;;;;3.97;2.70;;;23.10;77.20;;;;;;5030087;28;20040;-82
2022/06/24 00:30:16;;;;;;;4.30;2.75;;;23.10;77.00;;;;;;5052233;28;20154;-82
2022/06/24 00:32:43;;;;;;;5.75;2.72;;;23.10;77.70;;;;;;5023813;28;20033;-82
2022/06/24 00:35:13;;;;;;;4.80;2.80;;;23.10;77.40;;;;;;5054606;28;20033;-82
2022/06/24 00:37:41;;;;;;;4.20;2.60;;;23.10;77.90;;;;;;5025620;28;20054;-82
2022/06/24 00:40:10;;;;;;;4.50;2.75;;;23.20;77.90;;;;;;5056068;28;20025;-82
2022/06/24 00:42:42;;;;;;;3.72;2.53;;;23.20;78.20;;;;;;5025869;28;20490;-82
2022/06/24 00:45:31;;;;;;;4.25;2.90;;;23.20;78.40;;;;;;5039194;28;20051;-82
2022/06/24 00:47:57;;;;;;;5.45;3.20;;;23.20;79.10;;;;;;5024997;28;20075;-82
2022/06/24 00:50:26;;;;;;;5.33;3.20;;;23.20;78.70;;;;;;5048453;28;20028;-82
2022/06/24 00:52:57;;;;;;;5.55;3.60;;;23.20;78.90;;;;;;5039393;28;20052;-82
2022/06/24 00:55:29;;;;;;;5.38;3.63;;;23.20;79.10;;;;;;5044890;28;20032;-82
2022/06/24 00:58:00;;;;;;;5.40;3.60;;;23.10;79.40;;;;;;5033741;28;20352;-82
2022/06/24 01:00:29;;;;;;;5.30;3.65;;;23.10;79.50;;;;;;5050716;28;20028;-82
2022/06/24 01:03:03;;;;;;;5.63;3.97;;;23.10;79.50;;;;;;5025116;28;20265;-82
2022/06/24 01:05:30;;;;;;;5.72;3.83;;;23.10;79.80;;;;;;5060322;28;20032;-82
2022/06/24 01:07:57;;;;;;;7.78;4.40;;;23.10;79.70;;;;;;5034686;28;20036;-82
2022/06/24 01:10:23;;;;;;;5.60;4.35;;;23.10;79.80;;;;;;5050113;28;20108;-83
2022/06/24 01:12:49;;;;;;;6.80;4.23;;;23.00;79.90;;;;;;5048262;28;20124;-83
2022/06/24 01:15:15;;;;;;;6.93;4.75;;;23.00;80.00;;;;;;5031389;28;20043;-83
2022/06/24 01:17:41;;;;;;;5.65;4.47;;;22.90;80.00;;;;;;5026771;28;20037;-82
2022/06/24 01:20:11;;;;;;;8.17;5.40;;;22.90;80.20;;;;;;5035452;28;20075;-82
2022/06/24 01:22:38;;;;;;;7.60;5.00;;;22.90;80.60;;;;;;5038006;28;20283;-82
2022/06/24 01:25:05;;;;;;;7.00;5.40;;;22.90;80.70;;;;;;5039575;28;20056;-82
2022/06/24 01:27:31;;;;;;;8.20;5.38;;;22.90;80.90;;;;;;5049482;28;20467;-82
2022/06/24 01:29:57;;;;;;;7.80;5.53;;;22.80;81.00;;;;;;5035945;28;20032;-82
2022/06/24 01:32:22;;;;;;;8.75;5.82;;;22.80;81.10;;;;;;5065910;28;20078;-82
2022/06/24 01:34:48;;;;;;;9.00;6.03;;;22.80;81.30;;;;;;5010862;28;20041;-81
2022/06/24 01:37:14;;;;;;;10.57;6.83;;;22.80;81.50;;;;;;5046267;28;20032;-81
2022/06/24 01:39:40;;;;;;;9.07;6.38;;;22.70;81.60;;;;;;5044948;28;20050;-81
2022/06/24 01:42:07;;;;;;;10.10;6.50;;;22.70;81.90;;;;;;5053634;28;20316;-81
2022/06/24 01:44:32;;;;;;;10.23;6.90;;;22.70;82.10;;;;;;5039390;28;20066;-81
2022/06/24 01:46:58;;;;;;;11.40;7.45;;;22.70;82.40;;;;;;5034813;28;20037;-81
2022/06/24 01:49:24;;;;;;;14.00;7.72;;;22.60;82.50;;;;;;5038704;28;20491;-81
2022/06/24 01:51:53;;;;;;;12.40;7.80;;;22.60;82.80;;;;;;5032190;28;20369;-81
2022/06/24 01:54:19;;;;;;;13.02;7.93;;;22.60;83.10;;;;;;5038652;28;20558;-82
2022/06/24 01:56:44;;;;;;;13.13;7.95;;;22.60;83.20;;;;;;5031238;28;20032;-81
2022/06/24 01:59:10;;;;;;;12.27;7.90;;;22.50;83.30;;;;;;5048257;28;20033;-81
2022/06/24 02:01:36;;;;;;;12.48;8.20;;;22.50;83.50;;;;;;5031769;28;20486;-81
2022/06/24 02:04:01;;;;;;;13.03;8.33;;;22.50;83.60;;;;;;5030066;28;20956;-81
2022/06/24 02:06:27;;;;;;;12.85;7.70;;;22.50;83.60;;;;;;5048686;28;20079;-81
2022/06/24 02:08:53;;;;;;;13.07;8.33;;;22.50;83.70;;;;;;5027101;28;20280;-81
2022/06/24 02:14:06;;;;;;;15.50;8.50;;;22.40;83.70;;;;;;5049233;28;20124;-81
2022/06/24 02:16:32;;;;;;;14.97;8.57;;;22.40;83.80;;;;;;5026981;28;20025;-82
2022/06/24 02:18:58;;;;;;;13.50;8.23;;;22.40;84.00;;;;;;5037769;28;20334;-82
2022/06/24 02:21:24;;;;;;;13.52;8.32;;;22.40;84.30;;;;;;5037191;28;20444;-82
2022/06/24 02:23:51;;;;;;;14.13;8.48;;;22.30;84.40;;;;;;5043674;28;20264;-81
2022/06/24 02:26:17;;;;;;;13.03;8.50;;;22.30;84.70;;;;;;5043685;28;20456;-82
2022/06/24 02:28:42;;;;;;;14.50;8.50;;;22.30;84.90;;;;;;5036015;28;20492;-82
2022/06/24 02:31:08;;;;;;;14.73;8.60;;;22.30;85.00;;;;;;5039186;28;20033;-81
2022/06/24 02:33:34;;;;;;;12.73;8.13;;;22.30;85.20;;;;;;5024512;28;20504;-81
2022/06/24 02:36:00;;;;;;;12.73;7.97;;;22.30;85.50;;;;;;5045495;28;20126;-82
2022/06/24 02:38:26;;;;;;;14.50;8.27;;;22.30;85.60;;;;;;5035957;28;20036;-82
2022/06/24 02:40:52;;;;;;;14.90;7.83;;;22.20;85.80;;;;;;5045262;28;20538;-82
2022/06/24 02:43:30;;;;;;;14.15;8.38;;;22.20;85.90;;;;;;5032302;28;20093;-81
2022/06/24 02:45:58;;;;;;;14.07;8.10;;;22.20;85.90;;;;;;5047324;28;20124;-81
2022/06/24 02:48:25;;;;;;;13.05;7.82;;;22.20;85.80;;;;;;5034275;28;20106;-81
2022/06/24 02:50:55;;;;;;;13.43;8.13;;;22.10;85.70;;;;;;5051536;28;20254;-80
2022/06/24 02:53:22;;;;;;;13.55;8.15;;;22.10;85.90;;;;;;5052608;28;20031;-82
2022/06/24 02:55:54;;;;;;;14.38;8.15;;;22.10;86.00;;;;;;5042529;28;20638;-80
2022/06/24 02:58:20;;;;;;;13.68;7.80;;;22.00;86.30;;;;;;5032328;28;20037;-81
2022/06/24 03:00:46;;;;;;;14.68;8.55;;;22.00;86.40;;;;;;5049872;28;20253;-81
2022/06/24 03:03:13;;;;;;;13.70;8.23;;;22.00;86.60;;;;;;5027063;28;20393;-82
2022/06/24 03:05:39;;;;;;;14.35;8.85;;;22.00;86.80;;;;;;5062265;28;20032;-81
2022/06/24 03:08:05;;;;;;;15.13;8.70;;;21.90;87.00;;;;;;5040540;28;20064;-81
2022/06/24 03:10:31;;;;;;;15.40;9.37;;;21.90;87.10;;;;;;5043348;28;20036;-82
2022/06/24 03:12:57;;;;;;;15.32;9.27;;;21.90;87.20;;;;;;5045691;28;20114;-82
2022/06/24 03:15:23;;;;;;;17.73;9.93;;;21.90;87.40;;;;;;5063813;28;20061;-81
2022/06/24 03:17:48;;;;;;;15.63;8.97;;;21.80;87.60;;;;;;5028662;28;20122;-82
2022/06/24 03:20:15;;;;;;;15.40;8.93;;;21.80;87.80;;;;;;5059621;28;20392;-81
2022/06/24 03:22:41;;;;;;;14.13;8.93;;;21.80;88.00;;;;;;5031296;28;20060;-81
2022/06/24 03:25:08;;;;;;;14.20;8.37;;;21.80;88.20;;;;;;5049445;28;20100;-81
2022/06/24 03:27:34;;;;;;;12.75;8.43;;;21.80;88.40;;;;;;5036310;28;20401;-81
2022/06/24 03:30:00;;;;;;;13.65;8.30;;;21.80;88.60;;;;;;5041972;28;20021;-81
2022/06/24 03:32:26;;;;;;;13.10;7.90;;;21.80;88.70;;;;;;5052876;28;20028;-82
2022/06/24 03:34:51;;;;;;;13.07;8.20;;;21.80;88.90;;;;;;5021790;28;20041;-82
2022/06/24 03:37:17;;;;;;;13.55;8.27;;;21.80;89.00;;;;;;5052814;28;20579;-82
2022/06/24 03:39:43;;;;;;;12.87;7.83;;;21.80;89.30;;;;;;5038145;28;20075;-82
2022/06/24 03:42:09;;;;;;;13.73;8.32;;;21.80;89.50;;;;;;5054019;28;20119;-83
2022/06/24 03:44:35;;;;;;;12.90;7.53;;;21.80;90.10;;;;;;5035417;28;20039;-82
2022/06/24 03:47:01;;;;;;;12.17;7.60;;;21.80;89.80;;;;;;5050615;28;20299;-82
2022/06/24 03:49:27;;;;;;;12.45;7.63;;;21.80;89.80;;;;;;5033775;28;20032;-82
2022/06/24 03:51:53;;;;;;;13.68;8.07;;;21.80;89.80;;;;;;5040658;28;20094;-82
2022/06/24 03:54:18;;;;;;;14.93;7.93;;;21.80;89.90;;;;;;5040740;28;20481;-82
2022/06/24 03:56:44;;;;;;;11.93;7.75;;;21.90;90.00;;;;;;5029213;28;20361;-82
2022/06/24 03:59:10;;;;;;;12.70;8.07;;;21.90;90.00;;;;;;5054084;28;20389;-82
2022/06/24 04:01:35;;;;;;;14.13;7.93;;;21.80;89.90;;;;;;5036337;28;20120;-81
2022/06/24 04:04:01;;;;;;;13.20;7.90;;;21.80;90.00;;;;;;5045036;28;20094;-82
2022/06/24 04:06:26;;;;;;;13.00;8.30;;;21.90;90.00;;;;;;5032831;28;20029;-82
2022/06/24 04:08:54;;;;;;;12.77;7.88;;;21.80;90.10;;;;;;5040452;28;20071;-81
2022/06/24 04:11:19;;;;;;;13.98;8.43;;;21.80;90.10;;;;;;5032620;28;20693;-81
2022/06/24 04:13:45;;;;;;;13.37;8.07;;;21.80;90.20;;;;;;5046608;28;20040;-81
2022/06/24 04:16:11;;;;;;;12.48;7.85;;;21.80;90.20;;;;;;5042824;28;20056;-80
2022/06/24 04:18:37;;;;;;;13.55;8.15;;;21.80;90.20;;;;;;5044689;28;20028;-81
2022/06/24 04:21:09;;;;;;;12.63;7.87;;;21.80;90.20;;;;;;5042302;28;20233;-81
2022/06/24 04:23:35;;;;;;;12.13;7.87;;;21.80;90.20;;;;;;5047326;28;20291;-81
2022/06/24 04:26:00;;;;;;;12.88;7.88;;;21.80;90.30;;;;;;5034904;28;20126;-82
2022/06/24 04:28:26;;;;;;;12.60;7.90;;;21.80;90.40;;;;;;5043556;28;20456;-82
2022/06/24 04:30:52;;;;;;;12.02;7.28;;;21.80;90.40;;;;;;5037588;28;20226;-82
2022/06/24 04:33:17;;;;;;;11.83;7.10;;;21.80;90.50;;;;;;5035631;28;20040;-81
2022/06/24 04:35:43;;;;;;;12.43;7.75;;;21.80;90.60;;;;;;5023331;28;20602;-81
2022/06/24 04:38:08;;;;;;;12.03;7.83;;;21.80;90.60;;;;;;5046867;28;20055;-81
2022/06/24 04:40:34;;;;;;;13.60;7.77;;;21.80;90.60;;;;;;5036298;28;20116;-81
2022/06/24 04:43:00;;;;;;;11.80;7.57;;;21.80;90.60;;;;;;5034745;28;20755;-81
2022/06/24 04:45:26;;;;;;;11.82;7.78;;;21.80;90.70;;;;;;5044045;28;20086;-81
2022/06/24 04:47:51;;;;;;;12.57;7.70;;;21.70;90.70;;;;;;5018216;28;20776;-81
2022/06/24 04:50:17;;;;;;;12.18;7.80;;;21.80;90.80;;;;;;5047227;28;20051;-81
2022/06/24 04:52:43;;;;;;;12.77;7.73;;;21.70;90.80;;;;;;5014088;28;20229;-80
2022/06/24 04:55:09;;;;;;;12.60;7.77;;;21.70;90.80;;;;;;5043059;28;20020;-81
2022/06/24 04:57:34;;;;;;;11.60;7.22;;;21.70;90.80;;;;;;5030012;28;20600;-81
2022/06/24 05:00:00;;;;;;;12.13;7.78;;;21.70;90.80;;;;;;5037522;28;20214;-80
2022/06/24 05:02:26;;;;;;;12.47;7.63;;;21.80;90.90;;;;;;5017478;28;20159;-80
2022/06/24 05:04:51;;;;;;;13.18;7.85;;;21.70;90.90;;;;;;5053706;28;20028;-80
2022/06/24 05:07:17;;;;;;;9.10;6.30;;;21.70;90.90;;;;;;5029802;28;20078;-80
2022/06/24 05:09:43;;;;;;;12.05;7.55;;;21.70;91.00;;;;;;5033841;28;20382;-81
2022/06/24 05:12:09;;;;;;;12.27;7.07;;;21.70;91.00;;;;;;5035533;28;20425;-80
2022/06/24 05:14:35;;;;;;;12.00;7.20;;;21.70;91.10;;;;;;5029467;28;20040;-80
2022/06/24 05:17:01;;;;;;;12.52;7.38;;;21.70;91.10;;;;;;5047436;28;20037;-81
2022/06/24 05:19:27;;;;;;;12.10;7.13;;;21.70;91.10;;;;;;5039192;28;20672;-80
2022/06/24 05:21:53;;;;;;;11.33;6.90;;;21.70;91.10;;;;;;5015796;28;20037;-80
2022/06/24 05:24:19;;;;;;;12.30;7.70;;;21.70;91.20;;;;;;5028887;28;20124;-81
2022/06/24 05:26:46;;;;;;;14.55;7.68;;;21.70;91.30;;;;;;5036048;28;20033;-80
2022/06/24 05:29:11;;;;;;;12.77;7.78;;;21.70;91.40;;;;;;5033771;28;20457;-80
2022/06/24 05:31:38;;;;;;;13.20;7.57;;;21.70;91.40;;;;;;5048947;28;20037;-80
2022/06/24 05:34:04;;;;;;;9.77;6.47;;;21.70;91.50;;;;;;5036876;28;20035;-80
2022/06/24 05:36:30;;;;;;;13.23;7.88;;;21.70;91.50;;;;;;5040907;28;20128;-80
2022/06/24 05:38:55;;;;;;;14.27;7.97;;;21.70;91.60;;;;;;5026002;28;20118;-80
2022/06/24 05:41:22;;;;;;;12.73;7.95;;;21.70;91.70;;;;;;5025881;28;20048;-81
2022/06/24 05:43:48;;;;;;;12.50;8.07;;;21.70;91.70;;;;;;5022421;28;20631;-80
2022/06/24 05:46:14;;;;;;;11.48;7.55;;;21.70;91.80;;;;;;5033712;28;20041;-80
2022/06/24 05:48:41;;;;;;;11.32;7.35;;;21.70;91.90;;;;;;5049992;28;20067;-80
2022/06/24 05:51:11;;;;;;;11.48;7.25;;;21.70;91.90;;;;;;5030977;28;20028;-80
2022/06/24 05:56:22;;;;;;;13.05;6.82;;;21.70;91.90;;;;;;5035151;28;20624;-80
2022/06/24 05:58:48;;;;;;;8.50;6.03;;;21.70;92.00;;;;;;5030186;28;20122;-80
2022/06/24 06:01:14;;;;;;;8.23;5.75;;;21.70;92.10;;;;;;5028840;28;20266;-80
2022/06/24 06:03:40;;;;;;;9.70;6.00;;;21.70;92.10;;;;;;5050689;28;20040;-80
2022/06/24 06:06:07;;;;;;;10.75;6.05;;;21.70;92.10;;;;;;5038142;28;20041;-80
2022/06/24 06:08:34;;;;;;;11.45;6.78;;;21.70;92.10;;;;;;5024100;28;20106;-79
2022/06/24 06:10:59;;;;;;;10.68;6.75;;;21.70;92.10;;;;;;5034377;28;20045;-80
2022/06/24 06:13:25;;;;;;;10.90;6.60;;;21.70;92.10;;;;;;5050926;28;20306;-80
2022/06/24 06:15:51;;;;;;;10.75;6.57;;;21.70;92.00;;;;;;5061797;28;20036;-80
2022/06/24 06:18:17;;;;;;;10.70;6.37;;;21.70;92.00;;;;;;5038801;28;20248;-80
2022/06/24 06:20:42;;;;;;;10.40;6.90;;;21.70;92.10;;;;;;5036211;28;20073;-80
2022/06/24 06:23:08;;;;;;;11.70;7.43;;;21.70;92.20;;;;;;5032688;28;20107;-80
2022/06/24 06:25:34;;;;;;;14.03;8.30;;;21.70;92.40;;;;;;5021053;28;20056;-80
2022/06/24 06:28:01;;;;;;;13.23;8.67;;;21.80;92.50;;;;;;5044933;28;20299;-80
2022/06/24 06:30:31;;;;;;;15.00;8.50;;;21.80;92.60;;;;;;5052113;28;20214;-80
2022/06/24 06:32:57;;;;;;;14.68;8.38;;;21.80;92.80;;;;;;5049088;28;20033;-80
2022/06/24 06:35:22;;;;;;;13.30;7.60;;;21.90;92.80;;;;;;5023422;28;20537;-80
2022/06/24 06:37:48;;;;;;;14.45;7.97;;;21.90;92.90;;;;;;5053129;28;20017;-80
2022/06/24 06:40:14;;;;;;;13.07;7.47;;;21.90;93.00;;;;;;5017035;28;20060;-80
2022/06/24 06:42:39;;;;;;;10.88;6.95;;;22.00;93.10;;;;;;5047804;28;20064;-80
2022/06/24 06:45:05;;;;;;;13.07;8.00;;;22.00;93.20;;;;;;5037128;28;20041;-81
2022/06/24 06:47:31;;;;;;;10.70;7.00;;;22.10;93.30;;;;;;5046695;28;20061;-80
2022/06/24 06:49:57;;;;;;;10.88;6.85;;;22.10;93.30;;;;;;5042189;28;20069;-80
2022/06/24 06:52:22;;;;;;;10.43;6.43;;;22.20;93.40;;;;;;5035460;28;20146;-80
2022/06/24 06:54:48;;;;;;;9.93;6.53;;;22.30;93.40;;;;;;5011457;28;20329;-81
2022/06/24 06:57:14;;;;;;;9.37;6.47;;;22.40;93.50;;;;;;5033725;28;20386;-80
2022/06/24 06:59:39;;;;;;;9.70;6.47;;;22.40;93.70;;;;;;5035223;28;20124;-81
2022/06/24 07:02:05;;;;;;;10.37;6.53;;;22.50;93.70;;;;;;5042344;28;20401;-81
2022/06/24 07:04:31;;;;;;;9.25;6.03;;;22.60;93.80;;;;;;5026259;28;20036;-81
2022/06/24 07:06:57;;;;;;;8.33;5.63;;;22.70;93.60;;;;;;5028547;28;20563;-81
2022/06/24 07:09:22;;;;;;;7.70;5.40;;;22.70;93.30;;;;;;5024854;28;20036;-81
2022/06/24 07:11:48;;;;;;;7.80;5.40;;;22.80;93.00;;;;;;5037232;28;20973;-81
2022/06/24 07:14:13;;;;;;;11.40;5.10;;;22.80;92.60;;;;;;5030179;28;20481;-81
2022/06/24 07:16:39;;;;;;;8.75;5.57;;;22.80;92.40;;;;;;5035499;28;20040;-81
2022/06/24 07:19:05;;;;;;;7.57;5.38;;;22.70;92.40;;;;;;5050060;28;20116;-81
2022/06/24 07:21:31;;;;;;;8.77;5.70;;;22.80;92.40;;;;;;5039068;28;20156;-81
2022/06/24 07:23:56;;;;;;;8.53;5.57;;;22.70;92.40;;;;;;5023619;28;21589;-81
2022/06/24 07:26:22;;;;;;;6.35;4.80;;;22.70;92.30;;;;;;5047902;28;20083;-81
2022/06/24 07:28:47;;;;;;;7.23;4.60;;;22.70;92.40;;;;;;5031761;28;21910;-81
2022/06/24 07:31:18;;;;;;;6.63;4.25;;;22.70;92.40;;;;;;5051436;28;20107;-81
2022/06/24 07:33:44;;;;;;;6.17;4.20;;;22.70;92.30;;;;;;5035144;28;20520;-81
2022/06/24 07:36:11;;;;;;;6.10;4.20;;;22.70;92.50;;;;;;5049196;28;20423;-81
2022/06/24 07:38:36;;;;;;;6.45;4.68;;;22.70;92.50;;;;;;5034516;28;20113;-81
2022/06/24 07:41:02;;;;;;;7.13;4.72;;;22.70;92.60;;;;;;5036527;28;20547;-81
2022/06/24 07:43:28;;;;;;;7.07;4.50;;;22.70;92.60;;;;;;5050189;28;20519;-79
2022/06/24 07:45:55;;;;;;;6.43;4.78;;;22.70;92.60;;;;;;5042969;28;20313;-81
2022/06/24 07:48:20;;;;;;;6.15;4.25;;;22.80;92.60;;;;;;5041746;28;20029;-80
2022/06/24 07:50:46;;;;;;;6.30;4.60;;;22.70;92.60;;;;;;5046049;28;20028;-80
2022/06/24 07:53:12;;;;;;;7.22;4.43;;;22.80;92.90;;;;;;5045260;28;20044;-80
2022/06/24 07:58:22;;;;;;;6.40;4.00;;;22.90;93.10;;;;;;5057680;28;20040;-81
2022/06/24 08:00:48;;;;;;;7.15;4.47;;;23.00;93.00;;;;;;5030571;28;20550;-80
2022/06/24 08:03:14;;;;;;;6.82;4.10;;;23.00;93.10;;;;;;5043767;28;20075;-81
2022/06/24 08:05:40;;;;;;;5.63;4.07;;;23.10;93.70;;;;;;5033591;28;20081;-80
2022/06/24 08:08:06;;;;;;;5.87;3.70;;;23.20;93.60;;;;;;5040867;28;20025;-80
2022/06/24 08:10:32;;;;;;;6.45;4.05;;;23.30;93.70;;;;;;5038963;28;20063;-80
2022/06/24 08:12:57;;;;;;;5.10;3.40;;;23.40;93.80;;;;;;5044039;28;20032;-80
2022/06/24 08:15:23;;;;;;;5.30;3.60;;;23.60;93.70;;;;;;5037906;28;20538;-80
2022/06/24 08:17:49;;;;;;;4.60;3.50;;;23.70;93.40;;;;;;5031881;28;23068;-80
2022/06/24 08:20:15;;;;;;;7.38;3.38;;;23.70;93.00;;;;;;5050777;28;20037;-81
2022/06/24 08:22:41;;;;;;;5.00;3.28;;;23.80;92.80;;;;;;5045141;28;20048;-81
2022/06/24 08:25:07;;;;;;;4.67;2.93;;;23.80;92.70;;;;;;5043032;28;20048;-80
2022/06/24 08:27:33;;;;;;;3.65;2.65;;;23.90;92.70;;;;;;5026984;28;20036;-81
2022/06/24 08:29:58;;;;;;;3.57;2.37;;;23.90;92.50;;;;;;5041448;28;20181;-80
2022/06/24 08:32:24;;;;;;;3.28;2.42;;;23.90;92.30;;;;;;5033817;28;20032;-82
2022/06/24 08:34:50;;;;;;;3.37;2.40;;;23.80;92.00;;;;;;5031584;28;20036;-82
2022/06/24 08:37:15;;;;;;;4.25;2.38;;;23.80;91.70;;;;;;5050832;28;20059;-82
2022/06/24 08:39:41;;;;;;;2.77;2.00;;;23.80;91.50;;;;;;5032523;28;20104;-82
2022/06/24 08:42:11;;;;;;;1.95;1.40;;;23.70;91.20;;;;;;5028015;28;20086;-81
2022/06/24 08:44:37;;;;;;;2.05;1.30;;;23.60;90.30;;;;;;5063200;28;20119;-81
2022/06/24 08:47:03;;;;;;;1.80;1.02;;;23.40;89.90;;;;;;5040079;28;20036;-82
2022/06/24 08:49:34;;;;;;;1.00;0.80;;;23.30;88.90;;;;;;5033985;28;20033;-82
2022/06/24 08:52:03;;;;;;;0.70;0.70;;;23.10;87.40;;;;;;5041011;28;20021;-82
2022/06/24 08:54:32;;;;;;;0.70;0.70;;;22.90;87.50;;;;;;5040659;28;20037;-81
2022/06/24 08:56:58;;;;;;;0.68;0.68;;;22.70;87.70;;;;;;5035342;28;20254;-82
2022/06/24 08:59:26;;;;;;;0.80;0.70;;;22.50;89.10;;;;;;5028702;28;20465;-82
2022/06/24 09:01:52;;;;;;;0.60;0.60;;;22.40;88.60;;;;;;5058297;28;20556;-82
2022/06/24 09:04:22;;;;;;;0.70;0.60;;;22.30;89.00;;;;;;5027002;28;20033;-82
2022/06/24 09:06:47;;;;;;;0.50;0.47;;;22.10;89.20;;;;;;5018693;28;20087;-82
2022/06/24 09:09:25;;;;;;;0.85;0.70;;;22.10;90.00;;;;;;5053719;28;20056;-81
2022/06/24 09:12:00;;;;;;;0.73;0.60;;;22.00;89.20;;;;;;5027608;28;20218;-81
2022/06/24 09:14:44;;;;;;;0.73;0.60;;;21.90;90.00;;;;;;5028860;28;20475;-81
2022/06/24 09:17:11;;;;;;;0.85;0.50;;;21.90;89.50;;;;;;5046383;28;20028;-81
2022/06/24 09:19:37;;;;;;;1.20;0.60;;;21.80;90.40;;;;;;5018233;28;20352;-80
2022/06/24 09:22:03;;;;;;;0.60;0.60;;;21.80;90.50;;;;;;5045273;28;20028;-81
2022/06/24 09:24:45;;;;;;;0.63;0.63;;;21.80;90.60;;;;;;5035148;28;20499;-81
2022/06/24 09:27:11;;;;;;;0.82;0.68;;;21.80;90.20;;;;;;5047971;28;20532;-81
2022/06/24 09:29:45;;;;;;;0.70;0.70;;;21.80;90.90;;;;;;5026510;28;20111;-80
2022/06/24 09:32:10;;;;;;;1.02;0.70;;;21.80;91.00;;;;;;5050808;28;20063;-80
2022/06/24 09:34:36;;;;;;;0.70;0.70;;;21.80;91.00;;;;;;5033222;28;20052;-80
2022/06/24 09:37:02;;;;;;;0.80;0.67;;;21.90;91.00;;;;;;5038911;28;20469;-81
2022/06/24 09:39:31;;;;;;;2.55;0.85;;;21.90;91.00;;;;;;5048853;28;20079;-81
2022/06/24 09:41:57;;;;;;;1.02;0.73;;;21.90;91.00;;;;;;5026188;28;20047;-81
2022/06/24 09:44:26;;;;;;;1.00;0.90;;;21.90;91.10;;;;;;5048476;28;20032;-81
2022/06/24 09:47:05;;;;;;;0.77;0.77;;;21.90;91.10;;;;;;5030333;28;20467;-82
2022/06/24 09:49:31;;;;;;;0.85;0.65;;;22.00;90.70;;;;;;5020682;28;20028;-80
2022/06/24 09:51:58;;;;;;;1.07;0.70;;;22.00;91.60;;;;;;5037366;28;20037;-82
2022/06/24 09:54:24;;;;;;;0.70;0.70;;;22.10;91.90;;;;;;5040634;28;20045;-80
2022/06/24 09:56:50;;;;;;;0.60;0.60;;;22.20;92.50;;;;;;5019684;28;20738;-82
2022/06/24 10:02:00;;;;;;;0.80;0.70;;;22.60;93.80;;;;;;5025113;28;20033;-81
2022/06/24 10:04:27;;;;;;;1.00;0.80;;;23.00;94.80;;;;;;5024959;28;20033;-81
2022/06/24 10:06:56;;;;;;;1.10;0.90;;;23.30;95.10;;;;;;5047991;28;20032;-82
2022/06/24 10:09:25;;;;;;;0.80;0.80;;;23.60;94.60;;;;;;5023564;28;20186;-82
2022/06/24 10:11:53;;;;;;;0.80;0.80;;;23.90;93.90;;;;;;5036343;28;20404;-82
2022/06/24 10:14:19;;;;;;;0.97;0.80;;;24.10;93.20;;;;;;5050543;28;20833;-82
2022/06/24 10:16:48;;;;;;;1.08;0.90;;;24.30;91.80;;;;;;5019922;28;20040;-82
2022/06/24 10:19:15;;;;;;;0.93;0.82;;;24.30;91.00;;;;;;5023612;28;20662;-83
2022/06/24 10:21:41;;;;;;;1.35;0.80;;;24.40;91.10;;;;;;5040796;28;20054;-82
2022/06/24 10:24:15;;;;;;;0.90;0.80;;;24.40;90.90;;;;;;5028755;28;20344;-83
2022/06/24 10:26:47;;;;;;;1.25;0.85;;;24.30;90.30;;;;;;5047763;28;20033;-83
2022/06/24 10:29:20;;;;;;;1.38;1.00;;;24.40;90.80;;;;;;5033577;28;20318;-83
2022/06/24 10:31:53;;;;;;;1.73;0.93;;;24.40;90.40;;;;;;5048787;28;20039;-83
2022/06/24 10:34:30;;;;;;;1.23;1.00;;;24.50;91.50;;;;;;5024098;28;20341;-83
2022/06/24 10:37:15;;;;;;;1.42;0.98;;;24.50;91.10;;;;;;5021126;28;20060;-84
2022/06/24 10:39:50;;;;;;;1.88;0.95;;;24.60;91.10;;;;;;5045906;28;20151;-82
2022/06/24 10:42:20;;;;;;;1.55;0.93;;;24.80;91.80;;;;;;5028785;28;20048;-85
2022/06/24 10:45:01;;;;;;;1.10;1.00;;;25.00;93.30;;;;;;5035602;28;20060;-84
2022/06/24 10:47:40;;;;;;;1.73;0.90;;;25.30;91.90;;;;;;5042633;28;20048;-83
2022/06/24 10:50:11;;;;;;;1.10;1.00;;;25.60;91.60;;;;;;5032725;28;20296;-83
2022/06/24 10:52:39;;;;;;;2.40;1.20;;;25.70;90.40;;;;;;5035143;28;20501;-83
2022/06/24 10:57:50;;;;;;;1.63;0.93;;;25.80;86.60;;;;;;5027792;28;20643;-84
2022/06/24 11:00:21;;;;;;;1.90;0.93;;;25.70;87.70;;;;;;5043362;28;20072;-84
2022/06/24 11:02:56;;;;;;;1.17;0.90;;;25.70;87.80;;;;;;5029271;28;20425;-84
2022/06/24 11:05:30;;;;;;;1.35;0.90;;;25.60;88.00;;;;;;5025530;28;20129;-84
2022/06/24 11:07:55;;;;;;;1.00;0.90;;;25.60;88.50;;;;;;5034462;28;20237;-83
2022/06/24 11:10:24;;;;;;;1.37;1.00;;;25.70;91.10;;;;;;5039809;28;20067;-84
2022/06/24 11:12:58;;;;;;;1.45;1.17;;;25.90;91.50;;;;;;5036229;28;21680;-83
2022/06/24 11:15:49;;;;;;;1.00;0.90;;;26.00;91.20;;;;;;5036292;28;20561;-84
2022/06/24 11:18:23;;;;;;;0.95;0.90;;;26.20;89.00;;;;;;5051891;28;20123;-83
2022/06/24 11:21:09;;;;;;;1.10;0.80;;;26.40;90.90;;;;;;5028720;28;20545;-83
2022/06/24 11:23:40;;;;;;;0.90;0.90;;;26.70;92.90;;;;;;5035328;28;20052;-83
2022/06/24 11:26:14;;;;;;;0.98;0.98;;;27.00;93.70;;;;;;5029565;28;20029;-83
2022/06/24 11:28:42;;;;;;;1.17;0.90;;;27.40;91.80;;;;;;5026735;28;20504;-82
2022/06/24 11:31:28;;;;;;;1.15;0.90;;;27.70;91.30;;;;;;5042814;28;20610;-82
2022/06/24 11:34:06;;;;;;;0.90;0.80;;;27.70;86.40;;;;;;5040418;28;20610;-82
2022/06/24 11:36:32;;;;;;;0.80;0.80;;;27.80;84.70;;;;;;5022649;28;20113;-82
2022/06/24 11:39:01;;;;;;;0.80;0.80;;;27.80;87.60;;;;;;5030955;28;20033;-82
2022/06/24 11:41:36;;;;;;;1.50;0.95;;;27.90;89.90;;;;;;5046421;28;20025;-82
2022/06/24 11:44:02;;;;;;;0.90;0.90;;;28.00;87.50;;;;;;5028843;28;20199;-82
2022/06/24 11:46:27;;;;;;;0.87;0.87;;;28.20;89.60;;;;;;5039990;28;20489;-82
2022/06/24 11:49:07;;;;;;;0.90;0.90;;;28.30;87.20;;;;;;5043981;28;20111;-83
2022/06/24 11:51:34;;;;;;;1.20;1.10;;;28.40;83.50;;;;;;5016234;28;20115;-82
2022/06/24 11:54:07;;;;;;;1.15;1.02;;;28.50;89.40;;;;;;5046757;28;21021;-82
2022/06/24 11:56:35;;;;;;;1.43;1.00;;;28.70;86.50;;;;;;5023011;28;20037;-83
2022/06/24 11:59:06;;;;;;;1.45;1.00;;;28.80;88.70;;;;;;5030243;28;21473;-81
2022/06/24 12:01:32;;;;;;;1.08;0.98;;;29.00;86.30;;;;;;5034890;28;20449;-82
2022/06/24 12:04:00;;;;;;;1.10;0.90;;;29.20;90.00;;;;;;5028099;28;20880;-84
2022/06/24 12:06:28;;;;;;;1.10;1.00;;;29.50;90.00;;;;;;5036124;28;20044;-82
2022/06/24 12:08:55;;;;;;;0.90;0.90;;;29.70;89.50;;;;;;5015374;28;20183;-83
2022/06/24 12:11:22;;;;;;;2.25;1.08;;;30.00;89.30;;;;;;5027470;28;20473;-84
2022/06/24 12:14:05;;;;;;;1.10;1.00;;;30.20;89.10;;;;;;5040579;28;20280;-83
2022/06/24 12:17:08;;;;;;;1.20;1.10;;;30.50;84.70;;;;;;5033801;28;20560;-83
2022/06/24 12:19:56;;;;;;;1.00;1.00;;;30.80;81.00;;;;;;5039708;28;20053;-83
2022/06/24 12:22:22;;;;;;;1.20;1.10;;;31.00;84.90;;;;;;5027433;28;20131;-83
2022/06/24 12:24:58;;;;;;;0.90;0.90;;;31.10;88.90;;;;;;5032759;28;20145;-83
2022/06/24 12:27:31;;;;;;;1.02;1.00;;;31.30;85.90;;;;;;5031960;28;20039;-83
2022/06/24 12:29:57;;;;;;;1.00;1.00;;;31.40;81.60;;;;;;5039986;28;20029;-83
2022/06/24 12:32:23;;;;;;;1.00;1.00;;;31.60;85.60;;;;;;5038915;28;20060;-84
2022/06/24 12:34:55;;;;;;;1.13;1.02;;;31.60;83.10;;;;;;5048362;28;20078;-83
2022/06/24 12:37:20;;;;;;;1.10;1.00;;;31.50;77.80;;;;;;5032990;28;20036;-84
2022/06/24 12:39:47;;;;;;;1.40;1.30;;;31.50;82.90;;;;;;5036692;28;20656;-82
2022/06/24 12:42:17;;;;;;;1.05;0.90;;;31.50;84.80;;;;;;5027047;28;20127;-83
2022/06/24 12:44:48;;;;;;;1.00;1.00;;;31.60;83.20;;;;;;5036622;28;20425;-84
2022/06/24 12:53:02;;;;;;;1.38;1.10;;;31.70;79.90;;;;;;5022480;28;20067;-84
2022/06/24 12:55:30;;;;;;;1.23;1.00;;;31.80;84.40;;;;;;5043568;28;20032;-83
2022/06/24 12:57:56;;;;;;;1.47;1.03;;;31.80;83.80;;;;;;5023056;28;20196;-84
2022/06/24 13:00:22;;;;;;;1.13;1.02;;;31.90;84.40;;;;;;5049290;28;20102;-84
2022/06/24 13:02:49;;;;;;;1.00;1.00;;;31.90;84.50;;;;;;5052425;28;20047;-85
2022/06/24 13:05:19;;;;;;;1.35;1.25;;;31.90;81.90;;;;;;5042888;28;20060;-84